sensor_id;sensor_type;location;lat;lon;timestamp;P1;durP1;ratioP1;P2;durP2;ratioP2
3647;SDS011;1840;48.892;15.312;2023-12-14T00:02:18;14.60;;;10.33;;
3647;SDS011;1840;48.892;15.312;2023-12-14T00:04:48;15.17;;;9.80;;
3647;SDS011;1840;48.892;15.312;2023-12-14T00:07:16;16.70;;;10.27;;
3647;SDS011;1840;48.892;15.312;2023-12-14T00:09:44;15.20;;;9.40;;
3647;SDS011;1840;48.892;15.312;2023-12-14T00:12:12;20.37;;;10.50;;
3647;SDS011;1840;48.892;15.312;2023-12-14T00:14:40;14.43;;;10.10;;
3647;SDS011;1840;48.892;15.312;2023-12-14T00:17:08;13.93;;;10.70;;
3647;SDS011;1840;48.892;15.312;2023-12-14T00:19:36;12.73;;;9.53;;
3647;SDS011;1840;48.892;15.312;2023-12-14T00:22:06;14.33;;;11.03;;
3647;SDS011;1840;48.892;15.312;2023-12-14T00:24:34;16.73;;;10.73;;
3647;SDS011;1840;48.892;15.312;2023-12-14T00:27:02;17.87;;;11.37;;
3647;SDS011;1840;48.892;15.312;2023-12-14T00:29:31;17.10;;;12.07;;
3647;SDS011;1840;48.892;15.312;2023-12-14T00:31:59;17.97;;;11.30;;
3647;SDS011;1840;48.892;15.312;2023-12-14T00:34:28;14.60;;;10.90;;
3647;SDS011;1840;48.892;15.312;2023-12-14T00:36:57;19.13;;;10.67;;
3647;SDS011;1840;48.892;15.312;2023-12-14T00:39:26;19.57;;;12.27;;
3647;SDS011;1840;48.892;15.312;2023-12-14T00:41:54;16.97;;;10.83;;
3647;SDS011;1840;48.892;15.312;2023-12-14T00:44:22;15.90;;;11.40;;
3647;SDS011;1840;48.892;15.312;2023-12-14T00:46:50;17.37;;;11.87;;
3647;SDS011;1840;48.892;15.312;2023-12-14T00:49:19;21.50;;;13.47;;
3647;SDS011;1840;48.892;15.312;2023-12-14T00:51:47;17.57;;;12.33;;
3647;SDS011;1840;48.892;15.312;2023-12-14T00:54:15;22.43;;;11.97;;
3647;SDS011;1840;48.892;15.312;2023-12-14T00:56:44;19.27;;;11.80;;
3647;SDS011;1840;48.892;15.312;2023-12-14T00:59:13;18.07;;;11.73;;
3647;SDS011;1840;48.892;15.312;2023-12-14T01:01:41;17.07;;;11.03;;
3647;SDS011;1840;48.892;15.312;2023-12-14T01:04:09;14.70;;;9.80;;
3647;SDS011;1840;48.892;15.312;2023-12-14T01:06:38;16.50;;;11.33;;
3647;SDS011;1840;48.892;15.312;2023-12-14T01:09:06;19.30;;;14.00;;
3647;SDS011;1840;48.892;15.312;2023-12-14T01:11:34;17.00;;;13.20;;
3647;SDS011;1840;48.892;15.312;2023-12-14T01:14:04;19.17;;;12.67;;
3647;SDS011;1840;48.892;15.312;2023-12-14T01:16:32;17.27;;;11.40;;
3647;SDS011;1840;48.892;15.312;2023-12-14T01:19:00;17.63;;;11.60;;
3647;SDS011;1840;48.892;15.312;2023-12-14T01:21:29;18.03;;;11.77;;
3647;SDS011;1840;48.892;15.312;2023-12-14T01:23:57;20.07;;;12.17;;
3647;SDS011;1840;48.892;15.312;2023-12-14T01:26:26;17.33;;;11.40;;
3647;SDS011;1840;48.892;15.312;2023-12-14T01:28:54;21.13;;;11.73;;
3647;SDS011;1840;48.892;15.312;2023-12-14T01:31:24;23.07;;;12.87;;
3647;SDS011;1840;48.892;15.312;2023-12-14T01:33:52;14.87;;;10.40;;
3647;SDS011;1840;48.892;15.312;2023-12-14T01:36:21;22.93;;;13.20;;
3647;SDS011;1840;48.892;15.312;2023-12-14T01:38:50;16.67;;;10.37;;
3647;SDS011;1840;48.892;15.312;2023-12-14T01:41:18;16.03;;;10.77;;
3647;SDS011;1840;48.892;15.312;2023-12-14T01:43:46;15.30;;;11.33;;
3647;SDS011;1840;48.892;15.312;2023-12-14T01:46:15;17.73;;;10.30;;
3647;SDS011;1840;48.892;15.312;2023-12-14T01:48:44;18.07;;;10.93;;
3647;SDS011;1840;48.892;15.312;2023-12-14T01:51:12;15.90;;;9.57;;
3647;SDS011;1840;48.892;15.312;2023-12-14T01:53:40;14.70;;;11.37;;
3647;SDS011;1840;48.892;15.312;2023-12-14T01:56:09;15.70;;;11.60;;
3647;SDS011;1840;48.892;15.312;2023-12-14T01:58:38;14.67;;;9.77;;
3647;SDS011;1840;48.892;15.312;2023-12-14T02:01:08;11.27;;;8.40;;
3647;SDS011;1840;48.892;15.312;2023-12-14T02:03:47;13.50;;;8.60;;
3647;SDS011;1840;48.892;15.312;2023-12-14T02:06:17;13.17;;;9.53;;
3647;SDS011;1840;48.892;15.312;2023-12-14T02:08:45;14.70;;;11.20;;
3647;SDS011;1840;48.892;15.312;2023-12-14T02:11:14;18.80;;;11.50;;
3647;SDS011;1840;48.892;15.312;2023-12-14T02:13:42;19.17;;;10.73;;
3647;SDS011;1840;48.892;15.312;2023-12-14T02:16:10;19.07;;;11.43;;
3647;SDS011;1840;48.892;15.312;2023-12-14T02:18:38;18.53;;;11.93;;
3647;SDS011;1840;48.892;15.312;2023-12-14T02:21:08;19.70;;;12.60;;
3647;SDS011;1840;48.892;15.312;2023-12-14T02:23:43;18.50;;;11.10;;
3647;SDS011;1840;48.892;15.312;2023-12-14T02:26:11;21.20;;;13.60;;
3647;SDS011;1840;48.892;15.312;2023-12-14T02:28:40;15.63;;;11.43;;
3647;SDS011;1840;48.892;15.312;2023-12-14T02:31:08;19.83;;;11.67;;
3647;SDS011;1840;48.892;15.312;2023-12-14T02:33:36;18.57;;;11.80;;
3647;SDS011;1840;48.892;15.312;2023-12-14T02:36:05;20.83;;;11.87;;
3647;SDS011;1840;48.892;15.312;2023-12-14T02:38:34;17.37;;;12.20;;
3647;SDS011;1840;48.892;15.312;2023-12-14T02:41:04;19.53;;;12.90;;
3647;SDS011;1840;48.892;15.312;2023-12-14T02:43:32;14.23;;;11.00;;
3647;SDS011;1840;48.892;15.312;2023-12-14T02:46:01;17.40;;;11.30;;
3647;SDS011;1840;48.892;15.312;2023-12-14T02:48:29;18.57;;;11.53;;
3647;SDS011;1840;48.892;15.312;2023-12-14T02:50:57;18.80;;;11.80;;
3647;SDS011;1840;48.892;15.312;2023-12-14T02:53:27;18.60;;;11.10;;
3647;SDS011;1840;48.892;15.312;2023-12-14T02:55:55;22.10;;;13.83;;
3647;SDS011;1840;48.892;15.312;2023-12-14T02:58:24;18.87;;;12.03;;
3647;SDS011;1840;48.892;15.312;2023-12-14T03:00:55;20.13;;;12.07;;
3647;SDS011;1840;48.892;15.312;2023-12-14T03:03:23;23.90;;;14.40;;
3647;SDS011;1840;48.892;15.312;2023-12-14T03:05:54;17.27;;;11.83;;
3647;SDS011;1840;48.892;15.312;2023-12-14T03:08:22;20.23;;;12.27;;
3647;SDS011;1840;48.892;15.312;2023-12-14T03:10:50;288.10;;;143.60;;
3647;SDS011;1840;48.892;15.312;2023-12-14T03:13:18;23.60;;;14.63;;
3647;SDS011;1840;48.892;15.312;2023-12-14T03:15:48;21.53;;;12.60;;
3647;SDS011;1840;48.892;15.312;2023-12-14T03:18:16;17.17;;;12.10;;
3647;SDS011;1840;48.892;15.312;2023-12-14T03:20:44;13.97;;;10.53;;
3647;SDS011;1840;48.892;15.312;2023-12-14T03:23:13;15.90;;;11.47;;
3647;SDS011;1840;48.892;15.312;2023-12-14T03:25:41;18.33;;;12.20;;
3647;SDS011;1840;48.892;15.312;2023-12-14T03:28:09;16.67;;;10.60;;
3647;SDS011;1840;48.892;15.312;2023-12-14T03:30:37;15.67;;;11.30;;
3647;SDS011;1840;48.892;15.312;2023-12-14T03:33:07;15.90;;;11.47;;
3647;SDS011;1840;48.892;15.312;2023-12-14T03:35:35;16.20;;;10.60;;
3647;SDS011;1840;48.892;15.312;2023-12-14T03:38:04;21.33;;;11.87;;
3647;SDS011;1840;48.892;15.312;2023-12-14T03:40:33;17.47;;;10.90;;
3647;SDS011;1840;48.892;15.312;2023-12-14T03:43:01;20.17;;;10.87;;
3647;SDS011;1840;48.892;15.312;2023-12-14T03:45:29;15.70;;;11.03;;
3647;SDS011;1840;48.892;15.312;2023-12-14T03:47:58;20.23;;;11.50;;
3647;SDS011;1840;48.892;15.312;2023-12-14T03:50:28;19.73;;;12.70;;
3647;SDS011;1840;48.892;15.312;2023-12-14T03:52:56;15.17;;;10.53;;
3647;SDS011;1840;48.892;15.312;2023-12-14T03:55:24;16.80;;;11.97;;
3647;SDS011;1840;48.892;15.312;2023-12-14T03:57:52;15.70;;;11.53;;
3647;SDS011;1840;48.892;15.312;2023-12-14T04:00:20;16.10;;;10.70;;
3647;SDS011;1840;48.892;15.312;2023-12-14T04:02:48;18.43;;;12.13;;
3647;SDS011;1840;48.892;15.312;2023-12-14T04:05:16;21.87;;;12.80;;
3647;SDS011;1840;48.892;15.312;2023-12-14T04:07:46;23.03;;;13.33;;
3647;SDS011;1840;48.892;15.312;2023-12-14T04:10:14;23.83;;;14.60;;
3647;SDS011;1840;48.892;15.312;2023-12-14T04:12:42;23.07;;;14.40;;
3647;SDS011;1840;48.892;15.312;2023-12-14T04:15:11;30.43;;;14.63;;
3647;SDS011;1840;48.892;15.312;2023-12-14T04:17:39;23.63;;;14.30;;
3647;SDS011;1840;48.892;15.312;2023-12-14T04:20:07;27.87;;;14.90;;
3647;SDS011;1840;48.892;15.312;2023-12-14T04:22:38;41.87;;;17.87;;
3647;SDS011;1840;48.892;15.312;2023-12-14T04:25:08;37.20;;;19.07;;
3647;SDS011;1840;48.892;15.312;2023-12-14T04:27:37;31.43;;;15.10;;
3647;SDS011;1840;48.892;15.312;2023-12-14T04:30:06;36.47;;;18.83;;
3647;SDS011;1840;48.892;15.312;2023-12-14T04:32:37;40.00;;;18.63;;
3647;SDS011;1840;48.892;15.312;2023-12-14T04:35:05;30.47;;;16.53;;
3647;SDS011;1840;48.892;15.312;2023-12-14T04:37:34;33.97;;;18.10;;
3647;SDS011;1840;48.892;15.312;2023-12-14T04:40:03;38.37;;;19.90;;
3647;SDS011;1840;48.892;15.312;2023-12-14T04:42:33;33.00;;;16.70;;
3647;SDS011;1840;48.892;15.312;2023-12-14T04:45:02;35.00;;;16.20;;
3647;SDS011;1840;48.892;15.312;2023-12-14T04:47:31;30.90;;;15.87;;
3647;SDS011;1840;48.892;15.312;2023-12-14T04:50:00;31.60;;;16.23;;
3647;SDS011;1840;48.892;15.312;2023-12-14T04:52:28;34.17;;;16.43;;
3647;SDS011;1840;48.892;15.312;2023-12-14T04:54:57;31.33;;;17.40;;
3647;SDS011;1840;48.892;15.312;2023-12-14T04:57:25;31.40;;;16.40;;
3647;SDS011;1840;48.892;15.312;2023-12-14T04:59:55;29.90;;;15.20;;
3647;SDS011;1840;48.892;15.312;2023-12-14T05:02:23;30.77;;;15.50;;
3647;SDS011;1840;48.892;15.312;2023-12-14T05:04:51;26.60;;;15.90;;
3647;SDS011;1840;48.892;15.312;2023-12-14T05:07:20;24.17;;;14.67;;
3647;SDS011;1840;48.892;15.312;2023-12-14T05:09:50;23.10;;;14.00;;
3647;SDS011;1840;48.892;15.312;2023-12-14T05:12:18;22.70;;;13.60;;
3647;SDS011;1840;48.892;15.312;2023-12-14T05:14:46;25.03;;;13.57;;
3647;SDS011;1840;48.892;15.312;2023-12-14T05:17:16;26.07;;;14.90;;
3647;SDS011;1840;48.892;15.312;2023-12-14T05:19:44;24.70;;;14.67;;
3647;SDS011;1840;48.892;15.312;2023-12-14T05:22:13;25.10;;;14.87;;
3647;SDS011;1840;48.892;15.312;2023-12-14T05:24:41;29.00;;;15.03;;
3647;SDS011;1840;48.892;15.312;2023-12-14T05:27:09;29.83;;;16.10;;
3647;SDS011;1840;48.892;15.312;2023-12-14T05:29:37;29.27;;;16.00;;
3647;SDS011;1840;48.892;15.312;2023-12-14T05:32:06;30.40;;;15.67;;
3647;SDS011;1840;48.892;15.312;2023-12-14T05:34:35;31.13;;;16.23;;
3647;SDS011;1840;48.892;15.312;2023-12-14T05:37:04;27.07;;;14.57;;
3647;SDS011;1840;48.892;15.312;2023-12-14T05:39:33;27.60;;;15.07;;
3647;SDS011;1840;48.892;15.312;2023-12-14T05:42:01;26.07;;;14.00;;
3647;SDS011;1840;48.892;15.312;2023-12-14T05:44:29;28.07;;;14.23;;
3647;SDS011;1840;48.892;15.312;2023-12-14T05:46:57;25.97;;;14.33;;
3647;SDS011;1840;48.892;15.312;2023-12-14T05:49:25;23.57;;;14.90;;
3647;SDS011;1840;48.892;15.312;2023-12-14T05:51:55;24.07;;;13.63;;
3647;SDS011;1840;48.892;15.312;2023-12-14T05:54:26;26.40;;;14.03;;
3647;SDS011;1840;48.892;15.312;2023-12-14T05:56:54;26.43;;;14.70;;
3647;SDS011;1840;48.892;15.312;2023-12-14T05:59:22;25.73;;;15.13;;
3647;SDS011;1840;48.892;15.312;2023-12-14T06:01:55;36.80;;;17.77;;
3647;SDS011;1840;48.892;15.312;2023-12-14T06:04:24;377.20;;;130.47;;
3647;SDS011;1840;48.892;15.312;2023-12-14T06:06:57;415.80;;;163.77;;
3647;SDS011;1840;48.892;15.312;2023-12-14T06:09:26;235.07;;;94.63;;
3647;SDS011;1840;48.892;15.312;2023-12-14T06:12:00;69.90;;;30.13;;
3647;SDS011;1840;48.892;15.312;2023-12-14T06:14:28;76.27;;;33.57;;
3647;SDS011;1840;48.892;15.312;2023-12-14T06:16:57;91.93;;;39.03;;
3647;SDS011;1840;48.892;15.312;2023-12-14T06:19:26;152.40;;;64.17;;
3647;SDS011;1840;48.892;15.312;2023-12-14T06:21:54;146.37;;;57.83;;
3647;SDS011;1840;48.892;15.312;2023-12-14T06:24:23;59.00;;;27.97;;
3647;SDS011;1840;48.892;15.312;2023-12-14T06:26:51;43.93;;;20.53;;
3647;SDS011;1840;48.892;15.312;2023-12-14T06:29:19;77.10;;;34.80;;
3647;SDS011;1840;48.892;15.312;2023-12-14T06:31:47;32.67;;;19.47;;
3647;SDS011;1840;48.892;15.312;2023-12-14T06:34:15;46.17;;;18.73;;
3647;SDS011;1840;48.892;15.312;2023-12-14T06:36:44;42.03;;;20.57;;
3647;SDS011;1840;48.892;15.312;2023-12-14T06:39:13;50.27;;;24.37;;
3647;SDS011;1840;48.892;15.312;2023-12-14T06:41:47;50.23;;;24.60;;
3647;SDS011;1840;48.892;15.312;2023-12-14T06:44:16;89.47;;;35.57;;
3647;SDS011;1840;48.892;15.312;2023-12-14T06:46:44;35.40;;;18.27;;
3647;SDS011;1840;48.892;15.312;2023-12-14T06:49:12;28.40;;;14.10;;
3647;SDS011;1840;48.892;15.312;2023-12-14T06:51:41;29.53;;;15.07;;
3647;SDS011;1840;48.892;15.312;2023-12-14T06:54:09;49.60;;;25.90;;
3647;SDS011;1840;48.892;15.312;2023-12-14T06:56:37;35.77;;;20.73;;
3647;SDS011;1840;48.892;15.312;2023-12-14T06:59:07;32.47;;;18.20;;
3647;SDS011;1840;48.892;15.312;2023-12-14T07:01:35;28.07;;;14.80;;
3647;SDS011;1840;48.892;15.312;2023-12-14T07:04:03;24.20;;;13.67;;
3647;SDS011;1840;48.892;15.312;2023-12-14T07:06:32;39.40;;;19.80;;
3647;SDS011;1840;48.892;15.312;2023-12-14T07:09:01;26.83;;;14.70;;
3647;SDS011;1840;48.892;15.312;2023-12-14T07:11:29;27.53;;;15.13;;
3647;SDS011;1840;48.892;15.312;2023-12-14T07:13:58;29.40;;;15.63;;
3647;SDS011;1840;48.892;15.312;2023-12-14T07:16:28;25.07;;;14.00;;
3647;SDS011;1840;48.892;15.312;2023-12-14T07:18:56;24.10;;;14.20;;
3647;SDS011;1840;48.892;15.312;2023-12-14T07:21:24;22.67;;;13.80;;
3647;SDS011;1840;48.892;15.312;2023-12-14T07:23:54;28.60;;;13.23;;
3647;SDS011;1840;48.892;15.312;2023-12-14T07:26:22;25.10;;;13.77;;
3647;SDS011;1840;48.892;15.312;2023-12-14T07:28:53;25.77;;;13.20;;
3647;SDS011;1840;48.892;15.312;2023-12-14T07:31:21;24.40;;;13.83;;
3647;SDS011;1840;48.892;15.312;2023-12-14T07:33:50;27.63;;;15.03;;
3647;SDS011;1840;48.892;15.312;2023-12-14T07:36:19;26.77;;;14.57;;
3647;SDS011;1840;48.892;15.312;2023-12-14T07:38:48;36.50;;;18.43;;
3647;SDS011;1840;48.892;15.312;2023-12-14T07:41:21;29.80;;;14.77;;
3647;SDS011;1840;48.892;15.312;2023-12-14T07:43:53;25.67;;;13.60;;
3647;SDS011;1840;48.892;15.312;2023-12-14T07:46:21;27.03;;;14.80;;
3647;SDS011;1840;48.892;15.312;2023-12-14T07:48:54;26.63;;;15.03;;
3647;SDS011;1840;48.892;15.312;2023-12-14T07:51:23;25.27;;;14.67;;
3647;SDS011;1840;48.892;15.312;2023-12-14T07:53:51;23.30;;;13.80;;
3647;SDS011;1840;48.892;15.312;2023-12-14T07:56:19;27.57;;;13.57;;
3647;SDS011;1840;48.892;15.312;2023-12-14T07:58:52;30.40;;;13.63;;
3647;SDS011;1840;48.892;15.312;2023-12-14T08:01:20;25.57;;;14.03;;
3647;SDS011;1840;48.892;15.312;2023-12-14T08:03:49;26.37;;;14.13;;
3647;SDS011;1840;48.892;15.312;2023-12-14T08:06:18;28.63;;;15.10;;
3647;SDS011;1840;48.892;15.312;2023-12-14T08:08:46;25.40;;;13.43;;
3647;SDS011;1840;48.892;15.312;2023-12-14T08:11:15;25.23;;;13.87;;
3647;SDS011;1840;48.892;15.312;2023-12-14T08:13:44;24.60;;;14.60;;
3647;SDS011;1840;48.892;15.312;2023-12-14T08:16:14;24.27;;;13.80;;
3647;SDS011;1840;48.892;15.312;2023-12-14T08:18:43;23.93;;;14.17;;
3647;SDS011;1840;48.892;15.312;2023-12-14T08:21:12;28.57;;;14.77;;
3647;SDS011;1840;48.892;15.312;2023-12-14T08:23:42;27.30;;;13.03;;
3647;SDS011;1840;48.892;15.312;2023-12-14T08:26:10;28.90;;;15.00;;
3647;SDS011;1840;48.892;15.312;2023-12-14T08:28:39;33.70;;;17.70;;
3647;SDS011;1840;48.892;15.312;2023-12-14T08:31:07;31.77;;;15.50;;
3647;SDS011;1840;48.892;15.312;2023-12-14T08:33:37;26.70;;;14.60;;
3647;SDS011;1840;48.892;15.312;2023-12-14T08:36:06;27.47;;;13.70;;
3647;SDS011;1840;48.892;15.312;2023-12-14T08:38:34;26.27;;;12.50;;
3647;SDS011;1840;48.892;15.312;2023-12-14T08:41:04;25.17;;;13.13;;
3647;SDS011;1840;48.892;15.312;2023-12-14T08:43:33;22.67;;;12.23;;
3647;SDS011;1840;48.892;15.312;2023-12-14T08:46:01;24.00;;;14.03;;
3647;SDS011;1840;48.892;15.312;2023-12-14T08:48:29;27.27;;;13.10;;
3647;SDS011;1840;48.892;15.312;2023-12-14T08:50:58;23.53;;;13.43;;
3647;SDS011;1840;48.892;15.312;2023-12-14T08:53:26;22.47;;;13.00;;
3647;SDS011;1840;48.892;15.312;2023-12-14T08:55:56;22.40;;;12.43;;
3647;SDS011;1840;48.892;15.312;2023-12-14T08:58:26;22.70;;;13.00;;
3647;SDS011;1840;48.892;15.312;2023-12-14T09:00:56;35.73;;;12.87;;
3647;SDS011;1840;48.892;15.312;2023-12-14T09:03:24;33.63;;;13.00;;
3647;SDS011;1840;48.892;15.312;2023-12-14T09:05:53;20.63;;;12.27;;
3647;SDS011;1840;48.892;15.312;2023-12-14T09:08:21;22.17;;;12.50;;
3647;SDS011;1840;48.892;15.312;2023-12-14T09:10:49;23.13;;;12.77;;
3647;SDS011;1840;48.892;15.312;2023-12-14T09:13:19;27.77;;;14.03;;
3647;SDS011;1840;48.892;15.312;2023-12-14T09:15:49;23.87;;;14.33;;
3647;SDS011;1840;48.892;15.312;2023-12-14T09:18:18;22.27;;;12.73;;
3647;SDS011;1840;48.892;15.312;2023-12-14T09:20:49;21.53;;;13.77;;
3647;SDS011;1840;48.892;15.312;2023-12-14T09:23:20;20.73;;;11.60;;
3647;SDS011;1840;48.892;15.312;2023-12-14T09:25:48;19.13;;;13.40;;
3647;SDS011;1840;48.892;15.312;2023-12-14T09:28:17;23.50;;;14.17;;
3647;SDS011;1840;48.892;15.312;2023-12-14T09:30:45;25.93;;;12.87;;
3647;SDS011;1840;48.892;15.312;2023-12-14T09:33:15;24.87;;;13.83;;
3647;SDS011;1840;48.892;15.312;2023-12-14T09:35:43;22.33;;;11.80;;
3647;SDS011;1840;48.892;15.312;2023-12-14T09:38:12;25.73;;;13.27;;
3647;SDS011;1840;48.892;15.312;2023-12-14T09:40:43;23.00;;;12.80;;
3647;SDS011;1840;48.892;15.312;2023-12-14T09:43:11;21.17;;;12.73;;
3647;SDS011;1840;48.892;15.312;2023-12-14T09:45:41;26.53;;;13.67;;
3647;SDS011;1840;48.892;15.312;2023-12-14T09:48:11;25.20;;;12.13;;
3647;SDS011;1840;48.892;15.312;2023-12-14T09:50:42;20.77;;;11.97;;
3647;SDS011;1840;48.892;15.312;2023-12-14T09:53:11;24.57;;;13.80;;
3647;SDS011;1840;48.892;15.312;2023-12-14T09:55:39;22.17;;;13.37;;
3647;SDS011;1840;48.892;15.312;2023-12-14T09:58:08;21.80;;;13.10;;
3647;SDS011;1840;48.892;15.312;2023-12-14T10:00:37;20.60;;;13.00;;
3647;SDS011;1840;48.892;15.312;2023-12-14T10:03:17;26.43;;;14.00;;
3647;SDS011;1840;48.892;15.312;2023-12-14T10:05:51;25.07;;;13.77;;
3647;SDS011;1840;48.892;15.312;2023-12-14T10:08:20;19.43;;;13.23;;
3647;SDS011;1840;48.892;15.312;2023-12-14T10:10:50;21.30;;;12.30;;
3647;SDS011;1840;48.892;15.312;2023-12-14T10:13:20;20.20;;;12.50;;
3647;SDS011;1840;48.892;15.312;2023-12-14T10:15:50;23.77;;;14.33;;
3647;SDS011;1840;48.892;15.312;2023-12-14T10:18:21;18.70;;;11.80;;
3647;SDS011;1840;48.892;15.312;2023-12-14T10:20:53;22.40;;;12.33;;
3647;SDS011;1840;48.892;15.312;2023-12-14T10:23:22;23.33;;;13.33;;
3647;SDS011;1840;48.892;15.312;2023-12-14T10:25:50;17.03;;;10.53;;
3647;SDS011;1840;48.892;15.312;2023-12-14T10:28:20;21.13;;;10.93;;
3647;SDS011;1840;48.892;15.312;2023-12-14T10:30:51;18.60;;;10.23;;
3647;SDS011;1840;48.892;15.312;2023-12-14T10:33:19;19.27;;;10.77;;
3647;SDS011;1840;48.892;15.312;2023-12-14T10:35:47;25.23;;;12.93;;
3647;SDS011;1840;48.892;15.312;2023-12-14T10:38:18;25.60;;;14.40;;
3647;SDS011;1840;48.892;15.312;2023-12-14T10:40:47;22.83;;;13.30;;
3647;SDS011;1840;48.892;15.312;2023-12-14T10:43:16;26.10;;;13.23;;
3647;SDS011;1840;48.892;15.312;2023-12-14T10:46:04;27.60;;;14.33;;
3647;SDS011;1840;48.892;15.312;2023-12-14T10:48:35;21.07;;;11.97;;
3647;SDS011;1840;48.892;15.312;2023-12-14T10:51:03;28.73;;;13.80;;
3647;SDS011;1840;48.892;15.312;2023-12-14T10:53:33;20.83;;;12.30;;
3647;SDS011;1840;48.892;15.312;2023-12-14T10:56:02;23.60;;;12.60;;
3647;SDS011;1840;48.892;15.312;2023-12-14T10:58:45;21.40;;;11.73;;
3647;SDS011;1840;48.892;15.312;2023-12-14T11:01:15;28.23;;;13.27;;
3647;SDS011;1840;48.892;15.312;2023-12-14T11:03:44;23.43;;;12.23;;
3647;SDS011;1840;48.892;15.312;2023-12-14T11:06:29;22.17;;;10.80;;
3647;SDS011;1840;48.892;15.312;2023-12-14T11:09:01;16.40;;;10.67;;
3647;SDS011;1840;48.892;15.312;2023-12-14T11:11:40;20.03;;;10.83;;
3647;SDS011;1840;48.892;15.312;2023-12-14T11:14:11;16.00;;;10.37;;
3647;SDS011;1840;48.892;15.312;2023-12-14T11:16:40;18.13;;;11.20;;
3647;SDS011;1840;48.892;15.312;2023-12-14T11:19:29;16.00;;;10.00;;
3647;SDS011;1840;48.892;15.312;2023-12-14T11:22:13;16.00;;;9.97;;
3647;SDS011;1840;48.892;15.312;2023-12-14T11:24:53;19.43;;;11.57;;
3647;SDS011;1840;48.892;15.312;2023-12-14T11:27:26;14.57;;;9.60;;
3647;SDS011;1840;48.892;15.312;2023-12-14T11:29:58;19.13;;;11.37;;
3647;SDS011;1840;48.892;15.312;2023-12-14T11:32:28;16.47;;;11.13;;
3647;SDS011;1840;48.892;15.312;2023-12-14T11:34:56;16.83;;;10.93;;
3647;SDS011;1840;48.892;15.312;2023-12-14T11:37:25;18.87;;;10.60;;
3647;SDS011;1840;48.892;15.312;2023-12-14T11:39:57;17.00;;;10.70;;
3647;SDS011;1840;48.892;15.312;2023-12-14T11:42:25;16.60;;;9.73;;
3647;SDS011;1840;48.892;15.312;2023-12-14T11:44:57;16.53;;;10.50;;
3647;SDS011;1840;48.892;15.312;2023-12-14T11:47:26;18.60;;;9.70;;
3647;SDS011;1840;48.892;15.312;2023-12-14T11:49:54;15.60;;;9.60;;
3647;SDS011;1840;48.892;15.312;2023-12-14T11:52:22;22.37;;;9.63;;
3647;SDS011;1840;48.892;15.312;2023-12-14T11:54:50;10.40;;;7.70;;
3647;SDS011;1840;48.892;15.312;2023-12-14T11:57:20;13.10;;;7.90;;
3647;SDS011;1840;48.892;15.312;2023-12-14T11:59:50;10.50;;;6.00;;
3647;SDS011;1840;48.892;15.312;2023-12-14T12:02:22;10.50;;;6.10;;
3647;SDS011;1840;48.892;15.312;2023-12-14T12:04:52;8.43;;;5.50;;
3647;SDS011;1840;48.892;15.312;2023-12-14T12:07:20;8.50;;;5.20;;
3647;SDS011;1840;48.892;15.312;2023-12-14T12:09:49;7.27;;;5.20;;
3647;SDS011;1840;48.892;15.312;2023-12-14T12:12:20;6.60;;;4.97;;
3647;SDS011;1840;48.892;15.312;2023-12-14T12:14:49;9.33;;;5.20;;
3647;SDS011;1840;48.892;15.312;2023-12-14T12:17:19;8.43;;;4.93;;
3647;SDS011;1840;48.892;15.312;2023-12-14T12:19:48;7.60;;;4.73;;
3647;SDS011;1840;48.892;15.312;2023-12-14T12:22:16;7.23;;;4.20;;
3647;SDS011;1840;48.892;15.312;2023-12-14T12:24:44;5.37;;;3.63;;
3647;SDS011;1840;48.892;15.312;2023-12-14T12:27:20;7.37;;;4.10;;
3647;SDS011;1840;48.892;15.312;2023-12-14T12:29:48;4.47;;;3.27;;
3647;SDS011;1840;48.892;15.312;2023-12-14T12:32:23;5.60;;;3.83;;
3647;SDS011;1840;48.892;15.312;2023-12-14T12:34:51;5.63;;;4.30;;
3647;SDS011;1840;48.892;15.312;2023-12-14T12:37:20;4.97;;;3.80;;
3647;SDS011;1840;48.892;15.312;2023-12-14T12:39:49;5.60;;;4.17;;
3647;SDS011;1840;48.892;15.312;2023-12-14T12:42:17;6.20;;;4.33;;
3647;SDS011;1840;48.892;15.312;2023-12-14T12:44:48;6.57;;;4.70;;
3647;SDS011;1840;48.892;15.312;2023-12-14T12:47:16;6.70;;;4.80;;
3647;SDS011;1840;48.892;15.312;2023-12-14T12:49:44;6.40;;;5.20;;
3647;SDS011;1840;48.892;15.312;2023-12-14T12:52:12;6.67;;;4.93;;
3647;SDS011;1840;48.892;15.312;2023-12-14T12:54:40;8.10;;;6.30;;
3647;SDS011;1840;48.892;15.312;2023-12-14T12:57:09;8.33;;;5.90;;
3647;SDS011;1840;48.892;15.312;2023-12-14T12:59:38;8.27;;;6.17;;
3647;SDS011;1840;48.892;15.312;2023-12-14T13:02:08;9.13;;;6.43;;
3647;SDS011;1840;48.892;15.312;2023-12-14T13:04:37;8.50;;;6.07;;
3647;SDS011;1840;48.892;15.312;2023-12-14T13:07:05;8.70;;;6.57;;
3647;SDS011;1840;48.892;15.312;2023-12-14T13:09:35;11.70;;;7.33;;
3647;SDS011;1840;48.892;15.312;2023-12-14T13:12:04;12.70;;;9.10;;
3647;SDS011;1840;48.892;15.312;2023-12-14T13:14:32;13.23;;;8.90;;
3647;SDS011;1840;48.892;15.312;2023-12-14T13:17:00;14.47;;;9.10;;
3647;SDS011;1840;48.892;15.312;2023-12-14T13:19:30;14.57;;;9.70;;
3647;SDS011;1840;48.892;15.312;2023-12-14T13:21:58;16.73;;;11.00;;
3647;SDS011;1840;48.892;15.312;2023-12-14T13:24:28;16.63;;;11.27;;
3647;SDS011;1840;48.892;15.312;2023-12-14T13:26:56;17.23;;;11.27;;
3647;SDS011;1840;48.892;15.312;2023-12-14T13:29:25;13.07;;;9.93;;
3647;SDS011;1840;48.892;15.312;2023-12-14T13:31:53;16.33;;;11.00;;
3647;SDS011;1840;48.892;15.312;2023-12-14T13:34:22;16.20;;;11.20;;
3647;SDS011;1840;48.892;15.312;2023-12-14T13:36:51;16.90;;;11.40;;
3647;SDS011;1840;48.892;15.312;2023-12-14T13:39:19;15.27;;;10.73;;
3647;SDS011;1840;48.892;15.312;2023-12-14T13:41:48;16.23;;;11.23;;
3647;SDS011;1840;48.892;15.312;2023-12-14T13:44:16;14.87;;;9.80;;
3647;SDS011;1840;48.892;15.312;2023-12-14T13:46:45;11.97;;;8.30;;
3647;SDS011;1840;48.892;15.312;2023-12-14T13:49:13;14.70;;;8.53;;
3647;SDS011;1840;48.892;15.312;2023-12-14T13:51:41;13.87;;;10.00;;
3647;SDS011;1840;48.892;15.312;2023-12-14T13:54:11;13.90;;;9.40;;
3647;SDS011;1840;48.892;15.312;2023-12-14T13:56:39;15.90;;;9.33;;
3647;SDS011;1840;48.892;15.312;2023-12-14T13:59:08;12.60;;;8.47;;
3647;SDS011;1840;48.892;15.312;2023-12-14T14:01:37;17.27;;;9.17;;
3647;SDS011;1840;48.892;15.312;2023-12-14T14:04:05;13.40;;;8.33;;
3647;SDS011;1840;48.892;15.312;2023-12-14T14:06:33;13.33;;;9.27;;
3647;SDS011;1840;48.892;15.312;2023-12-14T14:09:02;11.63;;;8.10;;
3647;SDS011;1840;48.892;15.312;2023-12-14T14:11:32;20.13;;;8.20;;
3647;SDS011;1840;48.892;15.312;2023-12-14T14:14:01;10.20;;;7.80;;
3647;SDS011;1840;48.892;15.312;2023-12-14T14:16:30;10.40;;;7.80;;
3647;SDS011;1840;48.892;15.312;2023-12-14T14:18:58;10.23;;;7.77;;
3647;SDS011;1840;48.892;15.312;2023-12-14T14:21:26;9.97;;;7.17;;
3647;SDS011;1840;48.892;15.312;2023-12-14T14:23:57;10.73;;;7.70;;
3647;SDS011;1840;48.892;15.312;2023-12-14T14:26:25;10.30;;;7.90;;
3647;SDS011;1840;48.892;15.312;2023-12-14T14:28:55;10.97;;;7.47;;
3647;SDS011;1840;48.892;15.312;2023-12-14T14:31:26;9.97;;;7.67;;
3647;SDS011;1840;48.892;15.312;2023-12-14T14:33:58;11.30;;;7.97;;
3647;SDS011;1840;48.892;15.312;2023-12-14T14:36:26;11.47;;;7.57;;
3647;SDS011;1840;48.892;15.312;2023-12-14T14:38:55;11.87;;;8.37;;
3647;SDS011;1840;48.892;15.312;2023-12-14T14:41:24;13.77;;;8.70;;
3647;SDS011;1840;48.892;15.312;2023-12-14T14:43:52;13.80;;;9.60;;
3647;SDS011;1840;48.892;15.312;2023-12-14T14:46:22;12.67;;;8.30;;
3647;SDS011;1840;48.892;15.312;2023-12-14T14:48:50;13.50;;;9.00;;
3647;SDS011;1840;48.892;15.312;2023-12-14T14:51:19;17.93;;;10.03;;